sensor_id;sensor_type;location;lat;lon;timestamp;P1;durP1;ratioP1;P2;durP2;ratioP2
53062;SDS011;40529;52.172;10.548;2024-01-11T00:00:15;92.63;;;38.10;;
53062;SDS011;40529;52.172;10.548;2024-01-11T00:02:41;90.13;;;39.60;;
53062;SDS011;40529;52.172;10.548;2024-01-11T00:05:07;93.63;;;39.58;;
53062;SDS011;40529;52.172;10.548;2024-01-11T00:07:33;93.60;;;39.83;;
53062;SDS011;40529;52.172;10.548;2024-01-11T00:10:00;86.78;;;39.85;;
53062;SDS011;40529;52.172;10.548;2024-01-11T00:12:26;91.20;;;37.45;;
53062;SDS011;40529;52.172;10.548;2024-01-11T00:14:52;95.95;;;39.58;;
53062;SDS011;40529;52.172;10.548;2024-01-11T00:17:18;99.50;;;39.80;;
53062;SDS011;40529;52.172;10.548;2024-01-11T00:19:44;84.72;;;38.22;;
53062;SDS011;40529;52.172;10.548;2024-01-11T00:22:10;89.28;;;38.17;;
53062;SDS011;40529;52.172;10.548;2024-01-11T00:24:36;94.75;;;39.08;;
53062;SDS011;40529;52.172;10.548;2024-01-11T00:27:02;91.90;;;37.85;;
53062;SDS011;40529;52.172;10.548;2024-01-11T00:29:28;89.32;;;36.55;;
53062;SDS011;40529;52.172;10.548;2024-01-11T00:31:54;88.00;;;36.55;;
53062;SDS011;40529;52.172;10.548;2024-01-11T00:34:21;91.25;;;38.47;;
53062;SDS011;40529;52.172;10.548;2024-01-11T00:36:47;81.22;;;36.13;;
53062;SDS011;40529;52.172;10.548;2024-01-11T00:39:13;82.32;;;35.85;;
53062;SDS011;40529;52.172;10.548;2024-01-11T00:41:39;86.50;;;37.38;;
53062;SDS011;40529;52.172;10.548;2024-01-11T00:44:05;90.32;;;37.70;;
53062;SDS011;40529;52.172;10.548;2024-01-11T00:46:32;98.88;;;39.03;;
53062;SDS011;40529;52.172;10.548;2024-01-11T00:48:58;79.18;;;34.10;;
53062;SDS011;40529;52.172;10.548;2024-01-11T00:51:24;96.07;;;36.70;;
53062;SDS011;40529;52.172;10.548;2024-01-11T00:53:50;89.20;;;36.53;;
53062;SDS011;40529;52.172;10.548;2024-01-11T00:56:20;83.90;;;35.47;;
53062;SDS011;40529;52.172;10.548;2024-01-11T00:58:46;85.63;;;35.33;;
53062;SDS011;40529;52.172;10.548;2024-01-11T01:01:12;84.53;;;35.47;;
53062;SDS011;40529;52.172;10.548;2024-01-11T01:03:38;84.38;;;34.15;;
53062;SDS011;40529;52.172;10.548;2024-01-11T01:06:04;97.95;;;37.20;;
53062;SDS011;40529;52.172;10.548;2024-01-11T01:08:31;88.88;;;35.63;;
53062;SDS011;40529;52.172;10.548;2024-01-11T01:10:57;88.65;;;35.05;;
53062;SDS011;40529;52.172;10.548;2024-01-11T01:13:23;89.88;;;35.72;;
53062;SDS011;40529;52.172;10.548;2024-01-11T01:15:49;85.13;;;34.88;;
53062;SDS011;40529;52.172;10.548;2024-01-11T01:18:15;86.43;;;35.67;;
53062;SDS011;40529;52.172;10.548;2024-01-11T01:20:41;81.70;;;33.35;;
53062;SDS011;40529;52.172;10.548;2024-01-11T01:23:07;85.43;;;34.78;;
53062;SDS011;40529;52.172;10.548;2024-01-11T01:25:33;81.10;;;34.72;;
53062;SDS011;40529;52.172;10.548;2024-01-11T01:27:59;80.85;;;35.60;;
53062;SDS011;40529;52.172;10.548;2024-01-11T01:30:26;89.03;;;34.78;;
53062;SDS011;40529;52.172;10.548;2024-01-11T01:32:52;85.90;;;34.60;;
53062;SDS011;40529;52.172;10.548;2024-01-11T01:35:19;85.05;;;34.42;;
53062;SDS011;40529;52.172;10.548;2024-01-11T01:37:45;88.43;;;36.83;;
53062;SDS011;40529;52.172;10.548;2024-01-11T01:40:11;87.75;;;35.53;;
53062;SDS011;40529;52.172;10.548;2024-01-11T01:42:43;87.55;;;35.05;;
53062;SDS011;40529;52.172;10.548;2024-01-11T01:45:09;79.10;;;32.95;;
53062;SDS011;40529;52.172;10.548;2024-01-11T01:47:35;91.72;;;35.70;;
53062;SDS011;40529;52.172;10.548;2024-01-11T01:50:02;81.45;;;34.00;;
53062;SDS011;40529;52.172;10.548;2024-01-11T01:52:28;81.75;;;35.65;;
53062;SDS011;40529;52.172;10.548;2024-01-11T01:54:54;73.47;;;31.85;;
53062;SDS011;40529;52.172;10.548;2024-01-11T01:57:21;74.82;;;31.80;;
53062;SDS011;40529;52.172;10.548;2024-01-11T01:59:49;78.75;;;31.33;;
53062;SDS011;40529;52.172;10.548;2024-01-11T02:02:17;80.93;;;32.45;;
53062;SDS011;40529;52.172;10.548;2024-01-11T02:04:43;75.40;;;31.60;;
53062;SDS011;40529;52.172;10.548;2024-01-11T02:07:10;70.88;;;30.88;;
53062;SDS011;40529;52.172;10.548;2024-01-11T02:09:36;75.78;;;32.15;;
53062;SDS011;40529;52.172;10.548;2024-01-11T02:12:02;74.93;;;32.30;;
53062;SDS011;40529;52.172;10.548;2024-01-11T02:14:30;78.47;;;33.00;;
53062;SDS011;40529;52.172;10.548;2024-01-11T02:16:56;74.20;;;31.17;;
53062;SDS011;40529;52.172;10.548;2024-01-11T02:19:22;66.65;;;31.08;;
53062;SDS011;40529;52.172;10.548;2024-01-11T02:21:48;80.65;;;32.58;;
53062;SDS011;40529;52.172;10.548;2024-01-11T02:24:15;83.28;;;34.00;;
53062;SDS011;40529;52.172;10.548;2024-01-11T02:29:26;71.93;;;31.50;;
53062;SDS011;40529;52.172;10.548;2024-01-11T02:31:53;75.75;;;32.88;;
53062;SDS011;40529;52.172;10.548;2024-01-11T02:34:19;74.00;;;32.78;;
53062;SDS011;40529;52.172;10.548;2024-01-11T02:36:46;71.95;;;30.73;;
53062;SDS011;40529;52.172;10.548;2024-01-11T02:39:13;76.63;;;31.38;;
53062;SDS011;40529;52.172;10.548;2024-01-11T02:41:39;76.10;;;30.95;;
53062;SDS011;40529;52.172;10.548;2024-01-11T02:44:06;80.45;;;33.25;;
53062;SDS011;40529;52.172;10.548;2024-01-11T02:46:32;74.82;;;31.90;;
53062;SDS011;40529;52.172;10.548;2024-01-11T02:48:58;81.70;;;32.90;;
53062;SDS011;40529;52.172;10.548;2024-01-11T02:51:24;77.82;;;32.65;;
53062;SDS011;40529;52.172;10.548;2024-01-11T02:53:50;75.22;;;30.95;;
53062;SDS011;40529;52.172;10.548;2024-01-11T02:56:16;75.65;;;31.27;;
53062;SDS011;40529;52.172;10.548;2024-01-11T02:58:42;78.00;;;32.88;;
53062;SDS011;40529;52.172;10.548;2024-01-11T03:01:08;72.32;;;31.50;;
53062;SDS011;40529;52.172;10.548;2024-01-11T03:03:34;78.15;;;32.88;;
53062;SDS011;40529;52.172;10.548;2024-01-11T03:06:00;72.93;;;30.52;;
53062;SDS011;40529;52.172;10.548;2024-01-11T03:08:26;74.32;;;32.08;;
53062;SDS011;40529;52.172;10.548;2024-01-11T03:10:53;71.13;;;32.80;;
53062;SDS011;40529;52.172;10.548;2024-01-11T03:13:18;76.78;;;31.75;;
53062;SDS011;40529;52.172;10.548;2024-01-11T03:15:44;68.70;;;29.63;;
53062;SDS011;40529;52.172;10.548;2024-01-11T03:18:10;78.65;;;33.38;;
53062;SDS011;40529;52.172;10.548;2024-01-11T03:20:36;77.18;;;32.15;;
53062;SDS011;40529;52.172;10.548;2024-01-11T03:23:03;84.43;;;34.40;;
53062;SDS011;40529;52.172;10.548;2024-01-11T03:25:29;78.85;;;32.53;;
53062;SDS011;40529;52.172;10.548;2024-01-11T03:27:55;75.07;;;31.20;;
53062;SDS011;40529;52.172;10.548;2024-01-11T03:30:21;76.50;;;31.48;;
53062;SDS011;40529;52.172;10.548;2024-01-11T03:32:47;71.53;;;30.63;;
53062;SDS011;40529;52.172;10.548;2024-01-11T03:35:13;81.88;;;33.05;;
53062;SDS011;40529;52.172;10.548;2024-01-11T03:37:39;79.30;;;31.65;;
53062;SDS011;40529;52.172;10.548;2024-01-11T03:40:05;74.13;;;31.55;;
53062;SDS011;40529;52.172;10.548;2024-01-11T03:42:32;73.03;;;31.73;;
53062;SDS011;40529;52.172;10.548;2024-01-11T03:44:58;85.40;;;32.90;;
53062;SDS011;40529;52.172;10.548;2024-01-11T03:47:24;77.93;;;35.17;;
53062;SDS011;40529;52.172;10.548;2024-01-11T03:49:50;77.85;;;33.28;;
53062;SDS011;40529;52.172;10.548;2024-01-11T03:52:16;81.13;;;33.10;;
53062;SDS011;40529;52.172;10.548;2024-01-11T03:54:42;78.20;;;32.63;;
53062;SDS011;40529;52.172;10.548;2024-01-11T03:57:08;68.28;;;31.00;;
53062;SDS011;40529;52.172;10.548;2024-01-11T03:59:34;67.85;;;30.92;;
53062;SDS011;40529;52.172;10.548;2024-01-11T04:02:00;75.57;;;30.67;;
53062;SDS011;40529;52.172;10.548;2024-01-11T04:04:26;74.53;;;31.85;;
53062;SDS011;40529;52.172;10.548;2024-01-11T04:06:52;71.85;;;30.30;;
53062;SDS011;40529;52.172;10.548;2024-01-11T04:09:18;82.43;;;31.75;;
53062;SDS011;40529;52.172;10.548;2024-01-11T04:11:45;76.50;;;30.75;;
53062;SDS011;40529;52.172;10.548;2024-01-11T04:14:11;79.00;;;31.88;;
53062;SDS011;40529;52.172;10.548;2024-01-11T04:16:41;65.97;;;29.02;;
53062;SDS011;40529;52.172;10.548;2024-01-11T04:19:07;66.57;;;28.27;;
53062;SDS011;40529;52.172;10.548;2024-01-11T04:21:33;72.22;;;28.60;;
53062;SDS011;40529;52.172;10.548;2024-01-11T04:24:00;74.80;;;30.95;;
53062;SDS011;40529;52.172;10.548;2024-01-11T04:26:26;73.45;;;31.08;;
53062;SDS011;40529;52.172;10.548;2024-01-11T04:28:52;69.32;;;29.70;;
53062;SDS011;40529;52.172;10.548;2024-01-11T04:31:18;68.50;;;31.73;;
53062;SDS011;40529;52.172;10.548;2024-01-11T04:33:45;72.07;;;29.25;;
53062;SDS011;40529;52.172;10.548;2024-01-11T04:36:11;69.70;;;27.33;;
53062;SDS011;40529;52.172;10.548;2024-01-11T04:38:38;69.28;;;29.33;;
53062;SDS011;40529;52.172;10.548;2024-01-11T04:41:08;77.57;;;31.02;;
53062;SDS011;40529;52.172;10.548;2024-01-11T04:43:36;62.78;;;29.17;;
53062;SDS011;40529;52.172;10.548;2024-01-11T04:46:02;77.60;;;31.92;;
53062;SDS011;40529;52.172;10.548;2024-01-11T04:48:28;69.85;;;29.88;;
53062;SDS011;40529;52.172;10.548;2024-01-11T04:50:54;72.63;;;31.70;;
53062;SDS011;40529;52.172;10.548;2024-01-11T04:53:20;74.25;;;30.55;;
53062;SDS011;40529;52.172;10.548;2024-01-11T04:55:46;79.85;;;30.85;;
53062;SDS011;40529;52.172;10.548;2024-01-11T04:58:12;76.53;;;31.63;;
53062;SDS011;40529;52.172;10.548;2024-01-11T05:00:38;73.22;;;31.38;;
53062;SDS011;40529;52.172;10.548;2024-01-11T05:03:04;81.65;;;31.25;;
53062;SDS011;40529;52.172;10.548;2024-01-11T05:05:30;79.25;;;32.00;;
53062;SDS011;40529;52.172;10.548;2024-01-11T05:07:56;84.03;;;32.40;;
53062;SDS011;40529;52.172;10.548;2024-01-11T05:10:22;66.97;;;31.17;;
53062;SDS011;40529;52.172;10.548;2024-01-11T05:12:48;73.68;;;32.28;;
53062;SDS011;40529;52.172;10.548;2024-01-11T05:15:14;75.07;;;31.98;;
53062;SDS011;40529;52.172;10.548;2024-01-11T05:17:40;73.22;;;31.60;;
53062;SDS011;40529;52.172;10.548;2024-01-11T05:20:07;79.65;;;31.65;;
53062;SDS011;40529;52.172;10.548;2024-01-11T05:22:33;71.28;;;31.17;;
53062;SDS011;40529;52.172;10.548;2024-01-11T05:24:59;81.45;;;30.50;;
53062;SDS011;40529;52.172;10.548;2024-01-11T05:27:25;75.88;;;30.98;;
53062;SDS011;40529;52.172;10.548;2024-01-11T05:29:51;78.32;;;32.90;;
53062;SDS011;40529;52.172;10.548;2024-01-11T05:32:17;67.78;;;30.35;;
53062;SDS011;40529;52.172;10.548;2024-01-11T05:34:43;77.63;;;29.92;;
53062;SDS011;40529;52.172;10.548;2024-01-11T05:37:09;77.72;;;31.75;;
53062;SDS011;40529;52.172;10.548;2024-01-11T05:39:35;71.65;;;30.95;;
53062;SDS011;40529;52.172;10.548;2024-01-11T05:42:01;71.70;;;30.90;;
53062;SDS011;40529;52.172;10.548;2024-01-11T05:44:27;69.45;;;29.50;;
53062;SDS011;40529;52.172;10.548;2024-01-11T05:46:54;74.55;;;31.60;;
53062;SDS011;40529;52.172;10.548;2024-01-11T05:49:20;80.78;;;31.10;;
53062;SDS011;40529;52.172;10.548;2024-01-11T05:51:46;66.95;;;29.13;;
53062;SDS011;40529;52.172;10.548;2024-01-11T05:54:12;72.65;;;31.40;;
53062;SDS011;40529;52.172;10.548;2024-01-11T05:56:38;75.00;;;30.48;;
53062;SDS011;40529;52.172;10.548;2024-01-11T05:59:04;72.22;;;30.48;;
53062;SDS011;40529;52.172;10.548;2024-01-11T06:01:30;74.43;;;30.20;;
53062;SDS011;40529;52.172;10.548;2024-01-11T06:03:57;78.28;;;30.55;;
53062;SDS011;40529;52.172;10.548;2024-01-11T06:06:23;73.65;;;30.30;;
53062;SDS011;40529;52.172;10.548;2024-01-11T06:08:49;73.78;;;31.35;;
53062;SDS011;40529;52.172;10.548;2024-01-11T06:11:15;76.18;;;31.02;;
53062;SDS011;40529;52.172;10.548;2024-01-11T06:13:43;76.22;;;30.27;;
53062;SDS011;40529;52.172;10.548;2024-01-11T06:16:09;73.82;;;30.92;;
53062;SDS011;40529;52.172;10.548;2024-01-11T06:18:35;69.15;;;29.67;;
53062;SDS011;40529;52.172;10.548;2024-01-11T06:21:01;73.70;;;30.55;;
53062;SDS011;40529;52.172;10.548;2024-01-11T06:23:27;79.25;;;32.22;;
53062;SDS011;40529;52.172;10.548;2024-01-11T06:25:53;72.38;;;31.70;;
53062;SDS011;40529;52.172;10.548;2024-01-11T06:28:19;74.15;;;31.67;;
53062;SDS011;40529;52.172;10.548;2024-01-11T06:30:45;80.15;;;31.95;;
53062;SDS011;40529;52.172;10.548;2024-01-11T06:33:11;73.13;;;31.63;;
53062;SDS011;40529;52.172;10.548;2024-01-11T06:35:37;79.07;;;32.53;;
53062;SDS011;40529;52.172;10.548;2024-01-11T06:38:04;84.63;;;31.98;;
53062;SDS011;40529;52.172;10.548;2024-01-11T06:40:30;75.72;;;30.45;;
53062;SDS011;40529;52.172;10.548;2024-01-11T06:42:56;80.07;;;32.75;;
53062;SDS011;40529;52.172;10.548;2024-01-11T06:45:22;76.65;;;33.15;;
53062;SDS011;40529;52.172;10.548;2024-01-11T06:47:49;75.70;;;34.15;;
53062;SDS011;40529;52.172;10.548;2024-01-11T06:50:15;76.97;;;33.65;;
53062;SDS011;40529;52.172;10.548;2024-01-11T06:52:41;89.07;;;34.00;;
53062;SDS011;40529;52.172;10.548;2024-01-11T06:55:07;89.30;;;36.17;;
53062;SDS011;40529;52.172;10.548;2024-01-11T06:57:33;91.93;;;36.30;;
53062;SDS011;40529;52.172;10.548;2024-01-11T06:59:59;89.50;;;34.70;;
53062;SDS011;40529;52.172;10.548;2024-01-11T07:02:25;88.75;;;36.03;;
53062;SDS011;40529;52.172;10.548;2024-01-11T07:04:51;87.13;;;37.83;;
53062;SDS011;40529;52.172;10.548;2024-01-11T07:07:18;93.38;;;36.85;;
53062;SDS011;40529;52.172;10.548;2024-01-11T07:09:44;89.25;;;36.80;;
53062;SDS011;40529;52.172;10.548;2024-01-11T07:12:10;89.20;;;35.45;;
53062;SDS011;40529;52.172;10.548;2024-01-11T07:14:36;85.72;;;34.03;;
53062;SDS011;40529;52.172;10.548;2024-01-11T07:17:02;85.90;;;37.35;;
53062;SDS011;40529;52.172;10.548;2024-01-11T07:19:29;89.60;;;35.90;;
53062;SDS011;40529;52.172;10.548;2024-01-11T07:21:55;86.22;;;36.15;;
53062;SDS011;40529;52.172;10.548;2024-01-11T07:24:21;93.70;;;37.25;;
53062;SDS011;40529;52.172;10.548;2024-01-11T07:26:47;88.13;;;36.28;;
53062;SDS011;40529;52.172;10.548;2024-01-11T07:29:13;85.30;;;35.30;;
53062;SDS011;40529;52.172;10.548;2024-01-11T07:31:39;89.80;;;34.55;;
53062;SDS011;40529;52.172;10.548;2024-01-11T07:34:05;77.72;;;34.33;;
53062;SDS011;40529;52.172;10.548;2024-01-11T07:36:31;86.85;;;34.00;;
53062;SDS011;40529;52.172;10.548;2024-01-11T07:38:57;82.32;;;34.08;;
53062;SDS011;40529;52.172;10.548;2024-01-11T07:41:23;79.18;;;33.20;;
53062;SDS011;40529;52.172;10.548;2024-01-11T07:43:49;79.85;;;32.72;;
53062;SDS011;40529;52.172;10.548;2024-01-11T07:46:15;76.70;;;31.27;;
53062;SDS011;40529;52.172;10.548;2024-01-11T07:48:41;68.03;;;30.02;;
53062;SDS011;40529;52.172;10.548;2024-01-11T07:51:07;74.47;;;31.90;;
53062;SDS011;40529;52.172;10.548;2024-01-11T07:53:33;74.90;;;31.23;;
53062;SDS011;40529;52.172;10.548;2024-01-11T07:55:59;71.30;;;30.50;;
53062;SDS011;40529;52.172;10.548;2024-01-11T07:58:26;77.45;;;32.70;;
53062;SDS011;40529;52.172;10.548;2024-01-11T08:00:52;73.70;;;30.95;;
53062;SDS011;40529;52.172;10.548;2024-01-11T08:03:19;72.15;;;29.95;;
53062;SDS011;40529;52.172;10.548;2024-01-11T08:05:45;72.68;;;31.85;;
53062;SDS011;40529;52.172;10.548;2024-01-11T08:08:11;73.53;;;31.80;;
53062;SDS011;40529;52.172;10.548;2024-01-11T08:10:37;75.07;;;31.80;;
53062;SDS011;40529;52.172;10.548;2024-01-11T08:13:03;72.55;;;29.75;;
53062;SDS011;40529;52.172;10.548;2024-01-11T08:15:29;72.93;;;29.85;;
53062;SDS011;40529;52.172;10.548;2024-01-11T08:17:55;72.10;;;29.92;;
53062;SDS011;40529;52.172;10.548;2024-01-11T08:20:21;75.32;;;31.77;;
53062;SDS011;40529;52.172;10.548;2024-01-11T08:22:47;69.07;;;31.92;;
53062;SDS011;40529;52.172;10.548;2024-01-11T08:25:13;70.60;;;29.40;;
53062;SDS011;40529;52.172;10.548;2024-01-11T08:27:39;74.47;;;31.60;;
53062;SDS011;40529;52.172;10.548;2024-01-11T08:30:06;71.72;;;30.85;;
53062;SDS011;40529;52.172;10.548;2024-01-11T08:32:33;67.68;;;29.52;;
53062;SDS011;40529;52.172;10.548;2024-01-11T08:35:04;71.43;;;30.23;;
53062;SDS011;40529;52.172;10.548;2024-01-11T08:37:31;78.93;;;32.47;;
53062;SDS011;40529;52.172;10.548;2024-01-11T08:39:58;84.35;;;32.08;;
53062;SDS011;40529;52.172;10.548;2024-01-11T08:42:24;80.00;;;32.10;;
53062;SDS011;40529;52.172;10.548;2024-01-11T08:44:50;85.85;;;34.70;;
53062;SDS011;40529;52.172;10.548;2024-01-11T08:47:17;81.13;;;31.55;;
53062;SDS011;40529;52.172;10.548;2024-01-11T08:49:43;79.28;;;32.20;;
53062;SDS011;40529;52.172;10.548;2024-01-11T08:52:09;75.25;;;31.60;;
53062;SDS011;40529;52.172;10.548;2024-01-11T08:54:35;74.53;;;32.08;;
53062;SDS011;40529;52.172;10.548;2024-01-11T08:57:01;73.32;;;32.83;;
53062;SDS011;40529;52.172;10.548;2024-01-11T08:59:28;73.00;;;32.53;;
53062;SDS011;40529;52.172;10.548;2024-01-11T09:01:54;77.65;;;32.05;;
53062;SDS011;40529;52.172;10.548;2024-01-11T09:04:20;72.93;;;33.20;;
53062;SDS011;40529;52.172;10.548;2024-01-11T09:06:46;68.47;;;28.73;;
53062;SDS011;40529;52.172;10.548;2024-01-11T09:09:12;64.85;;;28.50;;
53062;SDS011;40529;52.172;10.548;2024-01-11T09:11:38;70.65;;;30.52;;
53062;SDS011;40529;52.172;10.548;2024-01-11T09:14:08;64.32;;;29.90;;
53062;SDS011;40529;52.172;10.548;2024-01-11T09:16:37;67.15;;;28.73;;
53062;SDS011;40529;52.172;10.548;2024-01-11T09:19:04;73.80;;;28.95;;
53062;SDS011;40529;52.172;10.548;2024-01-11T09:21:30;69.57;;;29.85;;
53062;SDS011;40529;52.172;10.548;2024-01-11T09:23:57;68.68;;;30.52;;
53062;SDS011;40529;52.172;10.548;2024-01-11T09:26:23;70.07;;;28.15;;
53062;SDS011;40529;52.172;10.548;2024-01-11T09:28:49;73.07;;;29.25;;
53062;SDS011;40529;52.172;10.548;2024-01-11T09:31:15;65.60;;;28.48;;
53062;SDS011;40529;52.172;10.548;2024-01-11T09:33:41;65.30;;;29.00;;
53062;SDS011;40529;52.172;10.548;2024-01-11T09:36:10;64.07;;;27.58;;
53062;SDS011;40529;52.172;10.548;2024-01-11T09:38:36;66.82;;;26.52;;
53062;SDS011;40529;52.172;10.548;2024-01-11T09:41:10;60.97;;;26.05;;
53062;SDS011;40529;52.172;10.548;2024-01-11T09:43:36;56.08;;;24.83;;
53062;SDS011;40529;52.172;10.548;2024-01-11T09:46:03;56.10;;;25.15;;
53062;SDS011;40529;52.172;10.548;2024-01-11T09:48:32;59.35;;;26.63;;
53062;SDS011;40529;52.172;10.548;2024-01-11T09:51:01;56.65;;;24.50;;
53062;SDS011;40529;52.172;10.548;2024-01-11T09:53:31;61.08;;;26.75;;
53062;SDS011;40529;52.172;10.548;2024-01-11T09:56:01;63.92;;;26.33;;
53062;SDS011;40529;52.172;10.548;2024-01-11T10:00:53;56.05;;;23.10;;
53062;SDS011;40529;52.172;10.548;2024-01-11T10:03:20;63.08;;;23.92;;
53062;SDS011;40529;52.172;10.548;2024-01-11T10:05:46;53.17;;;24.65;;
53062;SDS011;40529;52.172;10.548;2024-01-11T10:08:13;50.28;;;23.50;;
53062;SDS011;40529;52.172;10.548;2024-01-11T10:10:39;55.00;;;23.65;;
53062;SDS011;40529;52.172;10.548;2024-01-11T10:13:05;49.00;;;21.80;;
53062;SDS011;40529;52.172;10.548;2024-01-11T10:15:31;46.42;;;21.05;;
53062;SDS011;40529;52.172;10.548;2024-01-11T10:17:58;50.90;;;21.42;;
53062;SDS011;40529;52.172;10.548;2024-01-11T10:20:24;55.92;;;23.10;;
53062;SDS011;40529;52.172;10.548;2024-01-11T10:22:51;47.67;;;19.85;;
53062;SDS011;40529;52.172;10.548;2024-01-11T10:25:17;47.55;;;21.55;;
53062;SDS011;40529;52.172;10.548;2024-01-11T10:27:44;41.10;;;18.48;;
53062;SDS011;40529;52.172;10.548;2024-01-11T10:30:11;42.92;;;18.30;;
53062;SDS011;40529;52.172;10.548;2024-01-11T10:32:41;42.30;;;18.90;;
53062;SDS011;40529;52.172;10.548;2024-01-11T10:35:07;40.53;;;16.60;;
53062;SDS011;40529;52.172;10.548;2024-01-11T10:37:33;41.00;;;17.23;;
53062;SDS011;40529;52.172;10.548;2024-01-11T10:40:03;38.33;;;16.17;;
53062;SDS011;40529;52.172;10.548;2024-01-11T10:42:34;38.05;;;15.40;;
53062;SDS011;40529;52.172;10.548;2024-01-11T10:45:03;38.10;;;14.52;;
53062;SDS011;40529;52.172;10.548;2024-01-11T10:47:30;34.90;;;16.25;;
53062;SDS011;40529;52.172;10.548;2024-01-11T10:49:59;33.83;;;14.73;;
53062;SDS011;40529;52.172;10.548;2024-01-11T10:52:28;38.10;;;16.55;;
53062;SDS011;40529;52.172;10.548;2024-01-11T10:54:55;37.22;;;14.93;;
53062;SDS011;40529;52.172;10.548;2024-01-11T10:57:21;42.00;;;17.08;;
53062;SDS011;40529;52.172;10.548;2024-01-11T10:59:48;38.85;;;15.75;;
53062;SDS011;40529;52.172;10.548;2024-01-11T11:02:14;35.90;;;15.85;;
53062;SDS011;40529;52.172;10.548;2024-01-11T11:04:41;34.80;;;15.60;;
53062;SDS011;40529;52.172;10.548;2024-01-11T11:07:08;29.30;;;12.88;;
53062;SDS011;40529;52.172;10.548;2024-01-11T11:09:36;24.63;;;11.25;;
53062;SDS011;40529;52.172;10.548;2024-01-11T11:12:03;26.90;;;12.20;;
53062;SDS011;40529;52.172;10.548;2024-01-11T11:14:29;25.83;;;10.60;;
53062;SDS011;40529;52.172;10.548;2024-01-11T11:16:57;29.80;;;13.00;;
53062;SDS011;40529;52.172;10.548;2024-01-11T11:19:24;27.25;;;12.57;;
53062;SDS011;40529;52.172;10.548;2024-01-11T11:21:50;33.20;;;13.15;;
53062;SDS011;40529;52.172;10.548;2024-01-11T11:24:16;29.67;;;12.43;;
53062;SDS011;40529;52.172;10.548;2024-01-11T11:26:43;26.33;;;11.75;;
53062;SDS011;40529;52.172;10.548;2024-01-11T11:29:09;30.65;;;13.70;;
53062;SDS011;40529;52.172;10.548;2024-01-11T11:31:42;30.45;;;12.45;;
53062;SDS011;40529;52.172;10.548;2024-01-11T11:34:12;32.55;;;13.77;;
53062;SDS011;40529;52.172;10.548;2024-01-11T11:39:04;38.20;;;13.90;;
53062;SDS011;40529;52.172;10.548;2024-01-11T11:41:30;32.47;;;12.40;;
53062;SDS011;40529;52.172;10.548;2024-01-11T11:44:03;32.65;;;14.02;;
53062;SDS011;40529;52.172;10.548;2024-01-11T11:46:30;32.30;;;12.30;;
53062;SDS011;40529;52.172;10.548;2024-01-11T11:48:57;36.80;;;14.05;;
53062;SDS011;40529;52.172;10.548;2024-01-11T11:51:23;26.48;;;10.77;;
53062;SDS011;40529;52.172;10.548;2024-01-11T11:53:50;37.30;;;13.55;;
53062;SDS011;40529;52.172;10.548;2024-01-11T11:56:19;30.80;;;12.77;;
53062;SDS011;40529;52.172;10.548;2024-01-11T11:58:46;26.63;;;10.93;;
53062;SDS011;40529;52.172;10.548;2024-01-11T12:01:13;33.50;;;12.80;;
53062;SDS011;40529;52.172;10.548;2024-01-11T12:03:43;37.60;;;14.48;;
53062;SDS011;40529;52.172;10.548;2024-01-11T12:06:14;37.97;;;15.18;;
53062;SDS011;40529;52.172;10.548;2024-01-11T12:08:41;38.75;;;15.15;;
53062;SDS011;40529;52.172;10.548;2024-01-11T12:11:07;41.33;;;16.27;;
53062;SDS011;40529;52.172;10.548;2024-01-11T12:13:34;45.05;;;14.18;;
53062;SDS011;40529;52.172;10.548;2024-01-11T12:16:01;36.63;;;13.95;;
53062;SDS011;40529;52.172;10.548;2024-01-11T12:18:27;37.13;;;14.50;;
53062;SDS011;40529;52.172;10.548;2024-01-11T12:20:53;36.58;;;15.27;;
53062;SDS011;40529;52.172;10.548;2024-01-11T12:23:19;34.30;;;13.65;;
53062;SDS011;40529;52.172;10.548;2024-01-11T12:25:45;34.20;;;13.20;;
53062;SDS011;40529;52.172;10.548;2024-01-11T12:28:12;38.20;;;14.50;;
53062;SDS011;40529;52.172;10.548;2024-01-11T12:30:38;38.75;;;13.60;;
53062;SDS011;40529;52.172;10.548;2024-01-11T12:33:04;37.55;;;13.25;;
53062;SDS011;40529;52.172;10.548;2024-01-11T12:35:30;39.65;;;14.25;;
53062;SDS011;40529;52.172;10.548;2024-01-11T12:38:03;32.83;;;13.48;;
53062;SDS011;40529;52.172;10.548;2024-01-11T12:40:37;43.03;;;14.98;;
53062;SDS011;40529;52.172;10.548;2024-01-11T12:43:04;40.22;;;14.10;;
53062;SDS011;40529;52.172;10.548;2024-01-11T12:45:31;40.65;;;13.65;;
53062;SDS011;40529;52.172;10.548;2024-01-11T12:48:00;38.70;;;15.25;;
53062;SDS011;40529;52.172;10.548;2024-01-11T12:50:30;43.80;;;16.98;;
53062;SDS011;40529;52.172;10.548;2024-01-11T12:53:13;43.35;;;16.50;;
53062;SDS011;40529;52.172;10.548;2024-01-11T12:55:49;54.50;;;17.00;;
53062;SDS011;40529;52.172;10.548;2024-01-11T12:58:27;47.30;;;16.85;;
53062;SDS011;40529;52.172;10.548;2024-01-11T13:00:54;43.25;;;15.80;;
53062;SDS011;40529;52.172;10.548;2024-01-11T13:03:20;45.45;;;17.15;;
53062;SDS011;40529;52.172;10.548;2024-01-11T13:05:46;46.47;;;16.15;;
53062;SDS011;40529;52.172;10.548;2024-01-11T13:08:13;43.83;;;15.52;;
53062;SDS011;40529;52.172;10.548;2024-01-11T13:10:39;49.35;;;15.73;;
53062;SDS011;40529;52.172;10.548;2024-01-11T13:13:05;42.13;;;15.95;;
53062;SDS011;40529;52.172;10.548;2024-01-11T13:15:33;44.30;;;15.80;;
53062;SDS011;40529;52.172;10.548;2024-01-11T13:17:59;43.05;;;15.43;;
53062;SDS011;40529;52.172;10.548;2024-01-11T13:20:25;47.00;;;14.90;;
53062;SDS011;40529;52.172;10.548;2024-01-11T13:22:55;33.97;;;13.70;;
53062;SDS011;40529;52.172;10.548;2024-01-11T13:25:36;38.35;;;14.35;;
53062;SDS011;40529;52.172;10.548;2024-01-11T13:28:02;40.72;;;14.48;;
53062;SDS011;40529;52.172;10.548;2024-01-11T13:30:28;49.88;;;15.38;;
53062;SDS011;40529;52.172;10.548;2024-01-11T13:32:54;44.47;;;13.52;;
53062;SDS011;40529;52.172;10.548;2024-01-11T13:35:20;43.78;;;14.90;;
53062;SDS011;40529;52.172;10.548;2024-01-11T13:37:46;40.38;;;14.88;;
53062;SDS011;40529;52.172;10.548;2024-01-11T13:40:12;41.88;;;13.88;;
53062;SDS011;40529;52.172;10.548;2024-01-11T13:42:39;39.80;;;14.05;;
53062;SDS011;40529;52.172;10.548;2024-01-11T13:45:05;40.33;;;14.18;;
53062;SDS011;40529;52.172;10.548;2024-01-11T13:47:34;44.72;;;14.50;;
53062;SDS011;40529;52.172;10.548;2024-01-11T13:50:00;43.80;;;14.00;;
53062;SDS011;40529;52.172;10.548;2024-01-11T13:52:26;38.67;;;14.43;;
53062;SDS011;40529;52.172;10.548;2024-01-11T13:54:52;42.30;;;15.52;;
53062;SDS011;40529;52.172;10.548;2024-01-11T13:57:18;39.03;;;14.80;;
53062;SDS011;40529;52.172;10.548;2024-01-11T13:59:44;47.25;;;15.25;;
53062;SDS011;40529;52.172;10.548;2024-01-11T14:02:10;42.03;;;15.23;;
53062;SDS011;40529;52.172;10.548;2024-01-11T14:04:37;45.28;;;17.00;;
53062;SDS011;40529;52.172;10.548;2024-01-11T14:07:04;41.15;;;15.68;;
53062;SDS011;40529;52.172;10.548;2024-01-11T14:09:30;40.17;;;16.60;;
53062;SDS011;40529;52.172;10.548;2024-01-11T14:11:56;42.50;;;17.10;;